createdAt,value
2018-10-02T00:01:14.168Z,11.13
2018-10-02T00:03:43.131Z,19.67
2018-10-02T00:06:11.617Z,12.97
2018-10-02T00:08:40.152Z,16.77
2018-10-02T00:11:14.111Z,11.53
2018-10-02T00:13:48.289Z,14.70
2018-10-02T00:16:16.885Z,16.17
2018-10-02T00:18:45.412Z,13.10
2018-10-02T00:21:13.964Z,10.50
2018-10-02T00:23:42.483Z,16.73
2018-10-02T00:26:10.956Z,13.17
2018-10-02T00:28:39.496Z,19.60
2018-10-02T00:31:08.814Z,17.90
2018-10-02T00:33:37.416Z,17.43
2018-10-02T00:36:05.976Z,20.40
2018-10-02T00:38:34.464Z,14.33
2018-10-02T00:41:02.972Z,13.80
2018-10-02T00:43:31.507Z,15.70
2018-10-02T00:46:00.081Z,17.37
2018-10-02T00:48:28.612Z,15.70
2018-10-02T00:50:57.188Z,13.07
2018-10-02T00:53:25.717Z,18.60
2018-10-02T00:55:54.281Z,11.57
2018-10-02T00:58:22.862Z,13.30
2018-10-02T01:00:51.419Z,11.50
2018-10-02T01:03:19.967Z,13.07
2018-10-02T01:05:48.544Z,15.23
2018-10-02T01:08:17.147Z,13.73
2018-10-02T01:10:45.743Z,11.27
2018-10-02T01:13:14.292Z,23.33
2018-10-02T01:15:42.847Z,12.60
2018-10-02T01:18:11.479Z,13.43
2018-10-02T01:20:40.048Z,14.53
2018-10-02T01:23:08.664Z,12.07
2018-10-02T01:25:37.808Z,12.37
2018-10-02T01:28:06.477Z,14.33
2018-10-02T01:30:34.997Z,12.83
2018-10-02T01:33:03.652Z,18.10
2018-10-02T01:35:37.360Z,16.82
2018-10-02T01:38:05.939Z,18.00
2018-10-02T01:40:34.416Z,16.13
2018-10-02T01:43:02.888Z,11.03
2018-10-02T01:45:31.392Z,9.60
2018-10-02T01:47:59.928Z,20.97
2018-10-02T01:50:28.424Z,6.73
2018-10-02T01:52:56.951Z,15.03
2018-10-02T01:55:25.460Z,10.80
2018-10-02T01:57:53.988Z,11.53
2018-10-02T02:00:22.476Z,14.33
2018-10-02T02:02:50.987Z,13.50
2018-10-02T02:05:19.500Z,13.87
2018-10-02T02:07:47.971Z,13.37
2018-10-02T02:10:16.579Z,10.47
2018-10-02T02:12:45.191Z,15.73
2018-10-02T02:15:13.716Z,8.70
2018-10-02T02:17:42.303Z,15.13
2018-10-02T02:20:10.856Z,12.60
2018-10-02T02:22:39.440Z,12.00
2018-10-02T02:25:07.995Z,14.10
2018-10-02T02:27:36.544Z,13.00
2018-10-02T02:30:05.420Z,17.32
2018-10-02T02:32:34.076Z,21.77
2018-10-02T02:35:02.649Z,14.80
2018-10-02T02:37:31.199Z,16.10
2018-10-02T02:39:59.748Z,16.80
2018-10-02T02:42:28.367Z,14.23
2018-10-02T02:44:56.985Z,16.70
2018-10-02T02:47:30.949Z,15.43
2018-10-02T02:50:05.104Z,14.83
2018-10-02T02:52:37.284Z,12.90
2018-10-02T02:55:06.222Z,11.80
2018-10-02T02:57:34.756Z,12.20
2018-10-02T03:00:03.635Z,14.33
2018-10-02T03:02:32.209Z,16.23
2018-10-02T03:05:00.772Z,11.30
2018-10-02T03:07:29.421Z,13.07
2018-10-02T03:09:57.953Z,11.47
2018-10-02T03:12:26.511Z,11.00
2018-10-02T03:14:55.052Z,12.93
2018-10-02T03:17:23.616Z,13.10
2018-10-02T03:19:52.180Z,10.63
2018-10-02T03:22:20.701Z,16.75
2018-10-02T03:24:49.215Z,12.63
2018-10-02T03:27:17.807Z,9.53
2018-10-02T03:29:46.384Z,9.90
2018-10-02T03:32:14.984Z,11.03
2018-10-02T03:34:43.540Z,17.77
2018-10-02T03:37:12.133Z,12.73
2018-10-02T03:39:41.179Z,19.97
2018-10-02T03:42:09.732Z,15.80
2018-10-02T03:44:38.256Z,15.07
2018-10-02T03:47:06.840Z,17.47
2018-10-02T03:49:35.448Z,18.50
2018-10-02T03:52:04.011Z,13.23
2018-10-02T03:54:32.599Z,20.03
2018-10-02T03:57:01.192Z,14.20
2018-10-02T03:59:29.845Z,12.70
2018-10-02T04:01:58.387Z,13.93
2018-10-02T04:04:35.554Z,16.40
2018-10-02T04:07:04.098Z,18.03
2018-10-02T04:09:32.638Z,19.80
2018-10-02T04:12:01.274Z,15.13
2018-10-02T04:14:29.807Z,17.97
2018-10-02T04:16:58.435Z,15.10
2018-10-02T04:19:26.950Z,21.17
2018-10-02T04:21:55.490Z,17.00
2018-10-02T04:24:24.034Z,12.50
2018-10-02T04:26:52.562Z,14.37
2018-10-02T04:29:21.110Z,16.87
2018-10-02T04:31:49.670Z,22.23
2018-10-02T04:34:18.257Z,17.93
2018-10-02T04:36:46.811Z,18.50
2018-10-02T04:39:15.383Z,19.33
2018-10-02T04:41:43.939Z,18.87
2018-10-02T04:44:12.450Z,13.97
2018-10-02T04:46:41.005Z,10.47
2018-10-02T04:49:09.598Z,12.27
2018-10-02T04:51:38.174Z,16.20
2018-10-02T04:54:06.770Z,19.50
2018-10-02T04:56:35.387Z,16.60
2018-10-02T04:59:04.437Z,22.50
2018-10-02T05:01:33.147Z,20.87
2018-10-02T05:04:02.474Z,18.67
2018-10-02T05:06:31.481Z,14.33
2018-10-02T05:09:00.323Z,13.53
2018-10-02T05:11:29.020Z,21.03
2018-10-02T05:13:57.607Z,22.20
2018-10-02T05:16:26.159Z,23.37
2018-10-02T05:18:54.726Z,20.93
2018-10-02T05:21:23.275Z,17.70
2018-10-02T05:23:51.865Z,19.53
2018-10-02T05:26:20.503Z,22.97
2018-10-02T05:28:48.994Z,19.77
2018-10-02T05:31:17.523Z,17.23
2018-10-02T05:33:46.138Z,18.37
2018-10-02T05:36:14.690Z,16.97
2018-10-02T05:38:43.314Z,19.07
2018-10-02T05:41:11.854Z,23.73
2018-10-02T05:43:41.394Z,16.63
2018-10-02T05:46:10.179Z,22.73
2018-10-02T05:48:38.728Z,21.60
2018-10-02T05:51:07.271Z,20.33
2018-10-02T05:53:36.023Z,16.50
2018-10-02T05:56:04.587Z,18.77
2018-10-02T05:58:33.107Z,15.60
2018-10-02T06:01:01.705Z,15.50
2018-10-02T06:03:30.255Z,15.63
2018-10-02T06:05:58.830Z,19.83
2018-10-02T06:08:27.378Z,13.90
2018-10-02T06:10:55.954Z,14.77
2018-10-02T06:13:24.542Z,19.20
2018-10-02T06:15:53.467Z,19.57
2018-10-02T06:18:22.012Z,16.43
2018-10-02T06:20:50.978Z,19.32
2018-10-02T06:23:19.751Z,15.23
2018-10-02T06:25:48.468Z,16.03
2018-10-02T06:28:17.001Z,18.73
2018-10-02T06:30:45.575Z,17.63
2018-10-02T06:33:14.126Z,15.67
2018-10-02T06:35:42.835Z,14.93
2018-10-02T06:38:11.462Z,18.77
2018-10-02T06:40:40.138Z,17.53
2018-10-02T06:43:08.699Z,13.83
2018-10-02T06:45:37.309Z,17.87
2018-10-02T06:48:05.775Z,17.63
2018-10-02T06:50:36.503Z,16.67
2018-10-02T06:53:05.289Z,12.73
2018-10-02T06:55:33.907Z,11.83
2018-10-02T06:58:02.463Z,11.90
2018-10-02T07:00:31.070Z,13.37
2018-10-02T07:02:59.612Z,12.30
2018-10-02T07:05:28.249Z,19.87
2018-10-02T07:07:56.871Z,12.43
2018-10-02T07:10:29.136Z,11.07
2018-10-02T07:12:57.718Z,13.20
2018-10-02T07:15:26.264Z,9.73
2018-10-02T07:17:54.851Z,10.27
2018-10-02T07:20:23.404Z,12.47
2018-10-02T07:22:52.144Z,15.17
2018-10-02T07:25:20.755Z,15.87
2018-10-02T07:27:49.496Z,11.17
2018-10-02T07:30:19.488Z,12.67
2018-10-02T07:32:48.062Z,14.03
2018-10-02T07:35:16.615Z,12.07
2018-10-02T07:37:45.227Z,11.03
2018-10-02T07:40:13.778Z,10.43
2018-10-02T07:42:42.405Z,10.67
2018-10-02T07:45:10.995Z,8.27
2018-10-02T07:47:39.685Z,12.60
2018-10-02T07:50:08.708Z,16.47
2018-10-02T07:52:37.441Z,16.03
2018-10-02T07:55:06.211Z,10.00
2018-10-02T07:57:34.814Z,10.17
2018-10-02T08:00:03.834Z,12.40
2018-10-02T08:02:32.444Z,13.07
2018-10-02T08:05:01.083Z,17.10
2018-10-02T08:07:29.679Z,16.33
2018-10-02T08:09:58.266Z,13.43
2018-10-02T08:12:26.903Z,13.67
2018-10-02T08:14:55.535Z,18.00
2018-10-02T08:17:24.221Z,18.10
2018-10-02T08:19:52.841Z,16.53
2018-10-02T08:22:21.450Z,11.93
2018-10-02T08:24:50.001Z,13.83
2018-10-02T08:27:19.011Z,13.63
2018-10-02T08:29:47.711Z,14.53
2018-10-02T08:32:17.254Z,14.33
2018-10-02T08:34:45.905Z,14.90
2018-10-02T08:37:15.357Z,22.70
2018-10-02T08:39:44.005Z,17.37
2018-10-02T08:42:12.578Z,22.25
2018-10-02T08:44:41.279Z,20.73
2018-10-02T08:47:09.831Z,22.23
2018-10-02T08:49:38.958Z,16.83
2018-10-02T08:52:07.638Z,15.27
2018-10-02T08:54:36.147Z,13.00
2018-10-02T08:57:04.866Z,18.63
2018-10-02T08:59:33.558Z,19.20
2018-10-02T09:02:03.674Z,19.10
2018-10-02T09:04:32.218Z,16.83
2018-10-02T09:07:00.951Z,15.50
2018-10-02T09:09:29.560Z,14.77
2018-10-02T09:11:58.220Z,17.67
2018-10-02T09:14:27.561Z,15.20
2018-10-02T09:16:59.775Z,14.40
2018-10-02T09:19:28.350Z,17.83
2018-10-02T09:21:56.983Z,13.47
2018-10-02T09:24:25.675Z,9.83
2018-10-02T09:26:54.735Z,15.17
2018-10-02T09:29:23.426Z,10.43
2018-10-02T09:31:57.383Z,13.07
2018-10-02T09:34:31.342Z,10.77
2018-10-02T09:37:05.768Z,20.20
2018-10-02T09:39:40.002Z,10.33
2018-10-02T09:42:21.714Z,7.20
2018-10-02T09:44:50.346Z,12.93
2018-10-02T09:47:18.931Z,14.83
2018-10-02T09:49:47.550Z,13.83
2018-10-02T09:52:16.147Z,6.13
2018-10-02T09:54:44.714Z,11.90
2018-10-02T09:57:13.303Z,15.63
2018-10-02T09:59:41.947Z,12.40
2018-10-02T10:02:14.931Z,18.15
2018-10-02T10:04:43.497Z,15.13
2018-10-02T10:07:12.035Z,12.23
2018-10-02T10:09:40.627Z,15.03
2018-10-02T10:12:09.347Z,13.77
2018-10-02T10:14:37.911Z,15.27
2018-10-02T10:17:06.674Z,17.27
2018-10-02T10:19:35.174Z,13.67
2018-10-02T10:22:03.907Z,10.33
2018-10-02T10:24:32.451Z,10.23
2018-10-02T10:27:01.003Z,12.80
2018-10-02T10:29:29.643Z,9.13
2018-10-02T10:31:59.232Z,13.22
2018-10-02T10:34:27.900Z,15.17
2018-10-02T10:36:56.458Z,12.20
2018-10-02T10:39:25.031Z,14.80
2018-10-02T10:41:54.471Z,19.07
2018-10-02T10:44:23.088Z,7.87
2018-10-02T10:46:51.753Z,8.10
2018-10-02T10:49:22.945Z,12.03
2018-10-02T10:51:51.533Z,13.70
2018-10-02T10:54:20.137Z,11.63
2018-10-02T10:56:48.685Z,12.47
2018-10-02T10:59:17.292Z,9.30
2018-10-02T11:01:45.851Z,10.57
2018-10-02T11:04:15.374Z,7.73
2018-10-02T11:06:44.671Z,11.87
2018-10-02T11:09:15.285Z,10.27
2018-10-02T11:11:43.853Z,9.27
2018-10-02T11:14:12.695Z,8.93
2018-10-02T11:16:41.379Z,12.17
2018-10-02T11:19:11.841Z,13.17
2018-10-02T11:21:43.279Z,11.73
2018-10-02T11:24:11.969Z,13.27
2018-10-02T11:26:40.497Z,6.57
2018-10-02T11:29:09.018Z,11.87
2018-10-02T11:31:37.634Z,9.40
2018-10-02T11:34:06.203Z,10.07
2018-10-02T11:36:34.825Z,8.30
2018-10-02T11:39:05.034Z,10.23
2018-10-02T11:41:33.702Z,19.13
2018-10-02T11:44:02.410Z,13.20
2018-10-02T11:46:30.983Z,8.00
2018-10-02T11:48:59.987Z,13.53
2018-10-02T11:51:28.695Z,8.15
2018-10-02T11:53:57.661Z,11.07
2018-10-02T11:56:26.252Z,7.90
2018-10-02T11:58:54.834Z,7.07
2018-10-02T12:01:23.591Z,6.70
2018-10-02T12:03:52.147Z,4.80
2018-10-02T12:06:20.695Z,8.77
2018-10-02T12:08:49.290Z,5.28
2018-10-02T12:11:17.959Z,10.33
2018-10-02T12:13:46.679Z,9.50
2018-10-02T12:16:15.968Z,10.80
2018-10-02T12:18:44.623Z,8.03
2018-10-02T12:21:13.267Z,8.17
2018-10-02T12:23:42.268Z,10.77
2018-10-02T12:26:11.027Z,10.57
2018-10-02T12:28:39.627Z,9.17
2018-10-02T12:31:08.351Z,8.97
2018-10-02T12:33:37.639Z,6.97
2018-10-02T12:36:06.711Z,7.10
2018-10-02T12:38:35.443Z,7.17
2018-10-02T12:41:03.989Z,6.83
2018-10-02T12:43:32.667Z,6.37
2018-10-02T12:46:01.279Z,9.23
2018-10-02T12:48:29.954Z,9.08
2018-10-02T12:50:58.984Z,10.47
2018-10-02T12:53:27.973Z,8.17
2018-10-02T12:55:57.353Z,8.23
2018-10-02T12:58:25.967Z,8.57
2018-10-02T13:00:54.598Z,8.63
2018-10-02T13:03:23.661Z,7.90
2018-10-02T13:05:52.248Z,10.50
2018-10-02T13:08:21.869Z,13.83
2018-10-02T13:10:50.590Z,12.47
2018-10-02T13:13:19.520Z,8.30
2018-10-02T13:15:48.140Z,7.60
2018-10-02T13:18:17.085Z,6.20
2018-10-02T13:20:46.991Z,6.17
2018-10-02T13:23:16.237Z,10.40
2018-10-02T13:25:45.502Z,8.17
2018-10-02T13:28:14.310Z,10.13
2018-10-02T13:30:43.031Z,10.40
2018-10-02T13:33:11.593Z,7.10
2018-10-02T13:35:40.279Z,9.77
2018-10-02T13:38:08.979Z,7.30
2018-10-02T13:40:37.518Z,7.60
2018-10-02T13:43:06.170Z,7.93
2018-10-02T13:45:34.762Z,7.23
2018-10-02T13:48:04.286Z,7.07
2018-10-02T13:50:33.584Z,8.17
2018-10-02T13:53:02.180Z,6.87
2018-10-02T13:55:30.966Z,5.43
2018-10-02T13:57:59.742Z,6.83
2018-10-02T14:00:28.692Z,7.57
2018-10-02T14:02:57.491Z,9.20
2018-10-02T14:05:26.065Z,7.90
2018-10-02T14:07:54.798Z,6.93
2018-10-02T14:10:24.068Z,7.40
2018-10-02T14:12:53.086Z,7.70
2018-10-02T14:15:23.412Z,6.20
2018-10-02T14:17:52.168Z,6.93
2018-10-02T14:20:20.959Z,8.50
2018-10-02T14:22:52.085Z,6.80
2018-10-02T14:25:20.766Z,6.03
2018-10-02T14:27:49.453Z,16.33
2018-10-02T14:30:18.047Z,11.33
2018-10-02T14:32:46.604Z,11.97
2018-10-02T14:35:15.127Z,11.43
2018-10-02T14:37:43.741Z,8.03
2018-10-02T14:40:12.287Z,9.13
2018-10-02T14:42:41.580Z,9.27
2018-10-02T14:45:10.670Z,10.77
2018-10-02T14:47:39.303Z,8.80
2018-10-02T14:50:07.961Z,14.87
2018-10-02T14:52:36.559Z,10.40
2018-10-02T14:55:05.196Z,7.67
2018-10-02T14:57:33.839Z,10.73
2018-10-02T15:00:02.544Z,8.90
2018-10-02T15:02:32.359Z,8.20
2018-10-02T15:05:00.943Z,8.43
2018-10-02T15:07:29.703Z,9.27
2018-10-02T15:09:58.395Z,9.90
2018-10-02T15:12:27.876Z,8.57
2018-10-02T15:14:56.513Z,6.33
2018-10-02T15:17:25.959Z,10.90
2018-10-02T15:19:54.799Z,8.30
2018-10-02T15:22:23.383Z,8.83
2018-10-02T15:24:51.947Z,7.13
2018-10-02T15:27:20.498Z,9.88
2018-10-02T15:29:49.070Z,7.37
2018-10-02T15:32:17.926Z,12.13
2018-10-02T15:34:46.539Z,7.33
2018-10-02T15:37:15.077Z,9.83
2018-10-02T15:39:43.662Z,12.23
2018-10-02T15:42:12.311Z,8.73
2018-10-02T15:44:41.119Z,9.87
2018-10-02T15:47:09.674Z,10.93
2018-10-02T15:49:38.250Z,7.13
2018-10-02T15:52:06.943Z,6.40
2018-10-02T15:54:35.583Z,8.53
2018-10-02T15:57:04.268Z,8.57
2018-10-02T15:59:35.731Z,5.30
2018-10-02T16:02:08.984Z,8.63
2018-10-02T16:04:47.640Z,9.00
2018-10-02T16:07:18.601Z,10.37
2018-10-02T16:09:52.745Z,11.07
2018-10-02T16:12:23.852Z,7.07
2018-10-02T16:14:54.947Z,8.00
2018-10-02T16:17:25.537Z,7.30
2018-10-02T16:19:55.530Z,9.47
2018-10-02T16:22:25.851Z,7.93
2018-10-02T16:24:56.171Z,10.67
2018-10-02T16:27:26.363Z,11.87
2018-10-02T16:29:56.077Z,9.97
2018-10-02T16:32:26.584Z,9.23
2018-10-02T16:34:57.539Z,11.40
2018-10-02T16:37:27.743Z,6.47
2018-10-02T16:39:58.848Z,9.70
2018-10-02T16:42:29.478Z,7.47
2018-10-02T16:48:18.357Z,9.68
2018-10-02T16:50:48.892Z,11.43
2018-10-02T16:53:20.219Z,10.53
2018-10-02T16:55:50.198Z,8.57
2018-10-02T16:58:20.543Z,11.33
2018-10-02T17:00:49.822Z,19.03
2018-10-02T17:03:20.391Z,19.97
2018-10-02T17:05:50.281Z,17.90
2018-10-02T17:08:20.827Z,15.47
2018-10-02T17:10:51.743Z,18.57
2018-10-02T17:13:21.850Z,23.93
2018-10-02T17:15:52.761Z,17.67
2018-10-02T17:18:24.709Z,20.90
2018-10-02T17:20:56.339Z,15.13
2018-10-02T17:23:26.439Z,22.90
2018-10-02T17:25:57.328Z,15.10
2018-10-02T17:28:27.189Z,24.63
2018-10-02T17:30:57.432Z,26.63
2018-10-02T17:33:26.540Z,19.50
2018-10-02T17:35:58.001Z,20.40
2018-10-02T17:38:26.971Z,16.80
2018-10-02T17:40:56.783Z,16.57
2018-10-02T17:43:26.204Z,17.87
2018-10-02T17:45:54.799Z,16.50
2018-10-02T17:48:23.362Z,16.47
2018-10-02T17:50:52.034Z,16.23
2018-10-02T17:53:20.706Z,19.87
2018-10-02T17:55:49.289Z,19.20
2018-10-02T17:58:17.898Z,19.80
2018-10-02T18:00:46.559Z,18.35
2018-10-02T18:03:15.328Z,12.80
2018-10-02T18:05:44.450Z,16.27
2018-10-02T18:08:13.097Z,17.87
2018-10-02T18:10:41.671Z,14.00
2018-10-02T18:13:10.246Z,16.50
2018-10-02T18:15:38.973Z,13.60
2018-10-02T18:18:07.539Z,22.20
2018-10-02T18:20:36.162Z,11.43
2018-10-02T18:23:04.825Z,16.33
2018-10-02T18:25:33.458Z,19.93
2018-10-02T18:28:02.144Z,13.57
2018-10-02T18:30:30.795Z,15.53
2018-10-02T18:32:59.446Z,13.37
2018-10-02T18:35:28.242Z,17.73
2018-10-02T18:37:58.056Z,15.43
2018-10-02T18:40:26.668Z,19.00
2018-10-02T18:42:55.268Z,16.53
2018-10-02T18:45:24.046Z,17.87
2018-10-02T18:47:54.390Z,18.73
2018-10-02T18:50:23.639Z,14.67
2018-10-02T18:52:53.806Z,15.47
2018-10-02T18:55:22.394Z,12.20
2018-10-02T18:57:50.943Z,19.15
2018-10-02T19:00:19.704Z,14.57
2018-10-02T19:02:48.324Z,12.53
2018-10-02T19:05:16.847Z,15.30
2018-10-02T19:07:45.426Z,17.97
2018-10-02T19:10:15.292Z,14.83
2018-10-02T19:12:43.906Z,14.40
2018-10-02T19:15:12.564Z,14.33
2018-10-02T19:17:41.239Z,14.10
2018-10-02T19:20:15.582Z,16.93
2018-10-02T19:22:44.335Z,14.73
2018-10-02T19:25:18.511Z,16.43
2018-10-02T19:27:47.134Z,15.20
2018-10-02T19:30:21.187Z,12.10
2018-10-02T19:32:49.919Z,12.40
2018-10-02T19:35:21.476Z,12.50
2018-10-02T19:37:58.260Z,13.47
2018-10-02T19:40:29.647Z,8.67
2018-10-02T19:43:00.201Z,12.13
2018-10-02T19:45:35.582Z,12.40
2018-10-02T19:48:04.913Z,13.77
2018-10-02T19:50:34.598Z,11.87
2018-10-02T19:53:03.251Z,9.03
2018-10-02T19:55:31.887Z,10.30
2018-10-02T19:58:03.898Z,11.37
2018-10-02T20:00:34.876Z,6.97
2018-10-02T20:03:08.119Z,4.93
2018-10-02T20:05:38.635Z,7.03
2018-10-02T20:08:09.028Z,8.03
2018-10-02T20:10:40.497Z,9.10
2018-10-02T20:13:11.990Z,9.57
2018-10-02T20:15:40.987Z,6.43
2018-10-02T20:18:09.611Z,6.67
2018-10-02T20:20:38.158Z,9.17
2018-10-02T20:23:06.784Z,6.50
2018-10-02T20:25:35.471Z,10.20
2018-10-02T20:28:04.055Z,8.13
2018-10-02T20:30:33.814Z,5.53
2018-10-02T20:33:02.819Z,8.03
2018-10-02T20:35:31.491Z,5.77
2018-10-02T20:38:00.256Z,5.60
2018-10-02T20:40:28.824Z,9.70
2018-10-02T20:42:57.364Z,8.57
2018-10-02T20:45:25.999Z,8.33
2018-10-02T20:47:54.571Z,10.37
2018-10-02T20:50:23.158Z,7.97
2018-10-02T20:52:51.702Z,8.70
2018-10-02T20:55:20.362Z,4.70
2018-10-02T20:57:48.912Z,8.97
2018-10-02T21:00:17.487Z,5.30
2018-10-02T21:02:46.093Z,4.97
2018-10-02T21:05:14.734Z,7.13
2018-10-02T21:07:43.605Z,7.55
2018-10-02T21:10:12.191Z,6.53
2018-10-02T21:12:41.236Z,6.07
2018-10-02T21:15:09.880Z,9.03
2018-10-02T21:17:38.486Z,6.03
2018-10-02T21:20:07.264Z,5.87
2018-10-02T21:22:35.939Z,9.27
2018-10-02T21:25:05.155Z,6.33
2018-10-02T21:27:33.799Z,8.77
2018-10-02T21:30:02.450Z,9.93
2018-10-02T21:32:31.065Z,8.97
2018-10-02T21:34:59.662Z,9.07
2018-10-02T21:37:28.290Z,11.90
2018-10-02T21:39:57.036Z,10.63
2018-10-02T21:42:25.623Z,9.90
2018-10-02T21:44:54.206Z,7.43
2018-10-02T21:47:22.786Z,9.27
2018-10-02T21:49:51.362Z,9.63
2018-10-02T21:52:19.936Z,6.67
2018-10-02T21:54:48.502Z,7.77
2018-10-02T21:57:17.074Z,5.50
2018-10-02T21:59:45.666Z,4.13
2018-10-02T22:02:14.268Z,12.40
2018-10-02T22:04:43.607Z,8.13
2018-10-02T22:07:12.203Z,6.37
2018-10-02T22:09:40.744Z,6.93
2018-10-02T22:12:09.594Z,8.57
2018-10-02T22:14:38.227Z,6.70
2018-10-02T22:17:07.101Z,5.23
2018-10-02T22:19:35.686Z,9.47
2018-10-02T22:22:04.262Z,7.10
2018-10-02T22:24:32.791Z,8.43
2018-10-02T22:27:01.490Z,6.83
2018-10-02T22:29:30.036Z,6.40
2018-10-02T22:31:58.569Z,9.50
2018-10-02T22:34:27.190Z,9.40
2018-10-02T22:36:55.778Z,9.60
2018-10-02T22:39:24.315Z,8.10
2018-10-02T22:41:53.024Z,8.83
2018-10-02T22:44:21.671Z,8.00
2018-10-02T22:46:50.307Z,8.33
2018-10-02T22:49:19.409Z,6.57
2018-10-02T22:51:47.958Z,5.47
2018-10-02T22:54:16.481Z,9.57
2018-10-02T22:56:45.006Z,9.17
2018-10-02T22:59:13.592Z,7.93
2018-10-02T23:01:42.171Z,8.73
2018-10-02T23:04:11.677Z,9.43
2018-10-02T23:06:40.235Z,8.70
2018-10-02T23:09:09.915Z,8.77
2018-10-02T23:11:38.755Z,6.83
2018-10-02T23:14:07.340Z,7.97
2018-10-02T23:16:35.950Z,7.03
2018-10-02T23:19:04.819Z,8.40
2018-10-02T23:21:33.467Z,5.20
2018-10-02T23:24:02.053Z,8.50
2018-10-02T23:26:31.038Z,6.50
2018-10-02T23:28:59.656Z,8.40
2018-10-02T23:31:28.663Z,7.20
2018-10-02T23:33:57.227Z,9.00
2018-10-02T23:36:25.906Z,6.47
2018-10-02T23:38:54.542Z,5.83
2018-10-02T23:41:23.103Z,7.73
2018-10-02T23:43:51.662Z,7.20
2018-10-02T23:46:20.331Z,5.67
2018-10-02T23:48:48.851Z,7.40
2018-10-02T23:51:17.372Z,10.43
2018-10-02T23:53:45.938Z,6.63
2018-10-02T23:56:14.499Z,11.20
2018-10-02T23:58:43.058Z,5.80
